Time;durP1;ratioP1;P1;durP2;ratioP2;P2;SDS_P1;SDS_P2;PMS_P1;PMS_P2;Temp;Humidity;BMP_temperature;BMP_pressure;BME280_temperature;BME280_humidity;BME280_pressure;Samples;Min_cycle;Max_cycle;Signal;HPM_P1;HPM_P2
2021/12/06 00:00:44;;;;;;;19.95;11.02;;;3.10;86.00;;;;;;5050223;28;20505;-66
2021/12/06 00:03:16;;;;;;;15.75;11.07;;;3.10;86.10;;;;;;5049448;28;20033;-66
2021/12/06 00:05:41;;;;;;;14.60;11.20;;;3.00;86.30;;;;;;5046659;28;20048;-66
2021/12/06 00:08:07;;;;;;;13.32;9.02;;;3.00;86.40;;;;;;5039009;28;20393;-66
2021/12/06 00:10:33;;;;;;;15.52;10.73;;;3.10;86.50;;;;;;5049920;28;20493;-66
2021/12/06 00:12:59;;;;;;;15.38;10.70;;;3.10;86.60;;;;;;5049931;28;20055;-66
2021/12/06 00:15:26;;;;;;;16.33;10.52;;;3.10;86.60;;;;;;5049829;28;20532;-66
2021/12/06 00:17:52;;;;;;;16.13;10.10;;;3.20;86.70;;;;;;5050047;28;20780;-66
2021/12/06 00:20:17;;;;;;;17.60;10.05;;;3.20;86.60;;;;;;5049510;28;20120;-66
2021/12/06 00:22:43;;;;;;;16.88;10.40;;;3.20;86.70;;;;;;5049796;28;20399;-66
2021/12/06 00:25:10;;;;;;;13.88;10.27;;;3.30;86.60;;;;;;5048704;28;20049;-66
2021/12/06 00:27:38;;;;;;;17.98;11.40;;;3.30;86.60;;;;;;5049924;28;20095;-66
2021/12/06 00:30:09;;;;;;;13.35;9.63;;;3.30;86.70;;;;;;5049595;28;20072;-66
2021/12/06 00:32:35;;;;;;;13.43;9.95;;;3.30;86.70;;;;;;5049010;28;20037;-66
2021/12/06 00:35:00;;;;;;;13.88;9.95;;;3.40;86.70;;;;;;5049517;28;20036;-66
2021/12/06 00:37:33;;;;;;;16.95;12.30;;;3.40;86.60;;;;;;5036448;28;20049;-66
2021/12/06 00:40:03;;;;;;;14.38;10.43;;;3.50;86.70;;;;;;5049717;28;20079;-66
2021/12/06 00:42:34;;;;;;;17.95;10.32;;;3.50;86.70;;;;;;5048957;28;20067;-66
2021/12/06 00:45:02;;;;;;;15.05;10.20;;;3.60;86.70;;;;;;5049545;28;20037;-66
2021/12/06 00:47:27;;;;;;;15.73;11.15;;;3.60;86.60;;;;;;5048956;28;20047;-66
2021/12/06 00:49:54;;;;;;;13.65;9.77;;;3.60;86.60;;;;;;5049092;28;20545;-66
2021/12/06 00:52:21;;;;;;;16.02;9.85;;;3.60;86.60;;;;;;5049303;28;20095;-66
2021/12/06 00:54:47;;;;;;;16.50;10.40;;;3.70;86.50;;;;;;5048584;28;20136;-66
2021/12/06 00:57:14;;;;;;;16.38;10.55;;;3.70;86.40;;;;;;5049246;28;20048;-66
2021/12/06 00:59:40;;;;;;;14.40;9.75;;;3.70;86.50;;;;;;5041616;28;20056;-66
2021/12/06 01:02:08;;;;;;;16.15;9.98;;;3.70;86.40;;;;;;5049143;28;20041;-66
2021/12/06 01:04:36;;;;;;;16.92;10.55;;;3.70;86.40;;;;;;5046145;28;20136;-66
2021/12/06 01:07:04;;;;;;;13.57;10.07;;;3.70;86.40;;;;;;5047644;28;20067;-66
2021/12/06 01:09:29;;;;;;;16.58;11.07;;;3.70;86.40;;;;;;5048037;28;20045;-66
2021/12/06 01:11:55;;;;;;;18.55;12.95;;;3.80;86.40;;;;;;5048890;28;20037;-66
2021/12/06 01:14:21;;;;;;;20.92;13.25;;;3.80;86.30;;;;;;5041617;28;20045;-66
2021/12/06 01:16:47;;;;;;;18.50;13.07;;;3.80;86.30;;;;;;5048995;28;20080;-66
2021/12/06 01:19:13;;;;;;;20.20;13.38;;;3.80;86.30;;;;;;5049097;28;20032;-66
2021/12/06 01:24:05;;;;;;;26.98;15.63;;;3.90;86.30;;;;;;5048953;28;20047;-66
2021/12/06 01:26:45;;;;;;;28.45;18.45;;;3.90;86.20;;;;;;5048353;28;20132;-66
2021/12/06 01:40:22;;;;;;;31.05;18.90;;;3.90;86.40;;;;;;5048849;28;20045;-66
2021/12/06 01:42:48;;;;;;;30.00;18.90;;;3.90;86.40;;;;;;5048369;28;20047;-66
2021/12/06 01:45:15;;;;;;;30.58;20.02;;;3.90;86.30;;;;;;5043691;28;20049;-66
2021/12/06 01:47:41;;;;;;;30.83;19.85;;;3.90;86.40;;;;;;5048637;28;20076;-66
2021/12/06 01:50:07;;;;;;;33.78;20.55;;;3.90;86.30;;;;;;5048769;28;20037;-66
2021/12/06 01:52:36;;;;;;;31.13;19.73;;;4.00;86.30;;;;;;5047122;28;20043;-66
2021/12/06 01:55:06;;;;;;;31.85;19.95;;;3.90;86.30;;;;;;5048513;28;20072;-66
2021/12/06 01:57:32;;;;;;;32.17;21.15;;;3.90;86.40;;;;;;5047077;28;20049;-66
2021/12/06 01:59:58;;;;;;;32.13;21.05;;;3.90;86.40;;;;;;5048870;28;20086;-66
2021/12/06 02:02:25;;;;;;;31.67;20.08;;;3.90;86.40;;;;;;5048138;28;20044;-66
2021/12/06 02:04:51;;;;;;;35.53;21.90;;;3.90;86.40;;;;;;5048553;28;20049;-67
2021/12/06 02:07:20;;;;;;;31.85;19.25;;;3.90;86.40;;;;;;5048330;28;20041;-66
2021/12/06 02:09:48;;;;;;;31.58;20.30;;;3.90;86.50;;;;;;5048428;28;20045;-66
2021/12/06 02:12:15;;;;;;;34.25;21.75;;;3.90;86.50;;;;;;5048541;28;20078;-66
2021/12/06 02:14:56;;;;;;;31.48;20.17;;;3.90;86.50;;;;;;5046033;28;20045;-66
2021/12/06 02:17:27;;;;;;;34.33;21.25;;;3.90;86.50;;;;;;5047639;28;20095;-66
2021/12/06 02:20:03;;;;;;;31.83;19.93;;;4.00;86.50;;;;;;5048927;28;20124;-66
2021/12/06 02:22:32;;;;;;;34.53;20.25;;;4.00;86.40;;;;;;5047952;28;20102;-66
2021/12/06 02:24:58;;;;;;;31.40;19.88;;;4.00;86.40;;;;;;5045070;28;20053;-66
2021/12/06 02:27:27;;;;;;;34.72;20.63;;;4.00;86.50;;;;;;5048243;28;20087;-66
2021/12/06 02:29:54;;;;;;;35.63;21.25;;;4.00;86.40;;;;;;5047955;28;20500;-66
2021/12/06 02:32:20;;;;;;;31.02;20.80;;;4.00;86.40;;;;;;5048280;28;20052;-66
2021/12/06 02:34:50;;;;;;;34.20;20.55;;;4.10;86.40;;;;;;5048485;28;20421;-66
2021/12/06 02:37:20;;;;;;;33.95;20.67;;;4.00;86.30;;;;;;5036069;28;20057;-66
2021/12/06 02:39:46;;;;;;;33.70;19.95;;;4.00;86.20;;;;;;5047765;28;20044;-66
2021/12/06 02:42:15;;;;;;;35.53;20.50;;;4.00;86.10;;;;;;5051650;28;20116;-66
2021/12/06 02:44:43;;;;;;;33.95;21.45;;;4.10;86.30;;;;;;5052405;28;20124;-66
2021/12/06 02:47:09;;;;;;;34.17;22.13;;;4.10;86.40;;;;;;5050681;28;20041;-66
2021/12/06 02:49:35;;;;;;;31.83;19.90;;;4.10;86.30;;;;;;5050991;28;20041;-66
2021/12/06 02:52:01;;;;;;;37.65;22.65;;;4.10;86.20;;;;;;5050060;28;20044;-66
2021/12/06 02:54:27;;;;;;;34.35;21.35;;;4.10;86.30;;;;;;5041152;28;20050;-66
2021/12/06 02:57:37;;;;;;;35.58;22.15;;;4.10;86.40;;;;;;5046971;28;20044;-66
2021/12/06 02:59:43;;;;;;;35.78;21.55;;;4.10;86.30;;;;;;5033172;28;20045;-66
2021/12/06 03:02:12;;;;;;;35.45;22.13;;;4.10;86.30;;;;;;5049641;28;20045;-66
2021/12/06 03:04:39;;;;;;;37.17;21.80;;;4.20;86.30;;;;;;5051046;28;20090;-66
2021/12/06 03:07:07;;;;;;;39.40;22.98;;;4.20;86.30;;;;;;5050341;28;20124;-66
2021/12/06 03:09:37;;;;;;;36.55;23.17;;;4.20;86.30;;;;;;5051269;28;20041;-65
2021/12/06 03:12:14;;;;;;;40.92;22.50;;;4.10;86.20;;;;;;5049737;28;20049;-66
2021/12/06 03:14:47;;;;;;;37.22;22.77;;;4.10;86.20;;;;;;5051249;28;20502;-66
2021/12/06 03:17:16;;;;;;;34.85;21.65;;;4.10;86.20;;;;;;5050573;28;20052;-66
2021/12/06 03:19:43;;;;;;;31.73;20.42;;;4.10;86.30;;;;;;5049676;28;20091;-66
2021/12/06 03:22:11;;;;;;;36.08;22.77;;;4.20;86.30;;;;;;5051408;28;20508;-66
2021/12/06 03:24:37;;;;;;;33.92;22.90;;;4.20;86.30;;;;;;5050316;28;20048;-66
2021/12/06 03:27:04;;;;;;;35.75;22.02;;;4.20;86.30;;;;;;5051434;28;20116;-66
2021/12/06 03:29:30;;;;;;;35.78;21.90;;;4.20;86.20;;;;;;5049999;28;20087;-66
2021/12/06 03:31:56;;;;;;;31.13;21.42;;;4.20;86.20;;;;;;5049747;28;20502;-66
2021/12/06 03:34:26;;;;;;;32.67;20.50;;;4.20;86.20;;;;;;5039140;28;20122;-66
2021/12/06 03:36:57;;;;;;;37.08;22.13;;;4.20;86.10;;;;;;5050756;28;20057;-65
2021/12/06 03:39:33;;;;;;;35.50;21.40;;;4.20;86.10;;;;;;5050008;28;20053;-66
2021/12/06 03:42:03;;;;;;;34.50;21.63;;;4.20;86.20;;;;;;5050784;28;20179;-66
2021/12/06 03:44:29;;;;;;;37.40;22.55;;;4.20;86.10;;;;;;5045058;28;20068;-66
2021/12/06 03:47:01;;;;;;;38.75;23.63;;;4.10;86.10;;;;;;5050810;28;20052;-65
2021/12/06 03:49:27;;;;;;;36.25;22.30;;;4.20;86.20;;;;;;5049727;28;20075;-66
2021/12/06 03:51:53;;;;;;;35.05;23.05;;;4.20;86.20;;;;;;5050263;28;20071;-66
2021/12/06 03:54:25;;;;;;;36.90;22.85;;;4.20;86.20;;;;;;5049618;28;20035;-66
2021/12/06 03:56:50;;;;;;;;;;;4.20;86.20;;;;;;5050801;28;20056;-66
2021/12/06 03:59:17;;;;;;;34.67;21.05;;;4.20;86.00;;;;;;5049954;28;20305;-66
2021/12/06 04:01:43;;;;;;;37.38;23.15;;;4.20;86.30;;;;;;5050789;28;20049;-66
2021/12/06 04:04:09;;;;;;;38.65;22.45;;;4.20;86.20;;;;;;5050309;28;20055;-66
2021/12/06 04:06:36;;;;;;;42.70;24.60;;;4.30;86.20;;;;;;5049263;28;20389;-66
2021/12/06 04:09:05;;;;;;;40.17;23.80;;;4.20;86.20;;;;;;5049308;28;20048;-66
2021/12/06 04:11:31;;;;;;;41.05;23.92;;;4.30;86.30;;;;;;5049319;28;21042;-66
2021/12/06 04:13:57;;;;;;;35.05;22.15;;;4.20;86.20;;;;;;5050365;28;20049;-66
2021/12/06 04:16:22;;;;;;;38.35;23.70;;;4.20;86.20;;;;;;5049818;28;20079;-66
2021/12/06 04:18:49;;;;;;;38.33;24.20;;;4.20;86.20;;;;;;5049706;28;20202;-66
2021/12/06 04:21:16;;;;;;;36.85;22.60;;;4.20;86.20;;;;;;5050085;28;20065;-66
2021/12/06 04:23:41;;;;;;;39.03;24.52;;;4.20;86.20;;;;;;5048917;28;20424;-66
2021/12/06 04:26:07;;;;;;;37.20;22.75;;;4.20;86.30;;;;;;5049563;28;20041;-66
2021/12/06 04:28:35;;;;;;;38.60;23.52;;;4.20;86.20;;;;;;5049339;28;20088;-67
2021/12/06 04:31:02;;;;;;;35.92;22.38;;;4.20;86.30;;;;;;5049519;28;20048;-66
2021/12/06 04:33:28;;;;;;;33.85;21.95;;;4.10;86.30;;;;;;5050098;28;20051;-66
2021/12/06 04:35:53;;;;;;;39.22;22.45;;;4.10;86.30;;;;;;5049757;28;20052;-67
2021/12/06 04:38:21;;;;;;;39.20;21.90;;;4.10;86.40;;;;;;5049371;28;20103;-67
2021/12/06 04:40:47;;;;;;;36.78;22.17;;;4.10;86.50;;;;;;5049438;28;20040;-66
2021/12/06 04:43:13;;;;;;;40.25;22.92;;;4.10;86.50;;;;;;5049123;28;20052;-66
2021/12/06 04:45:39;;;;;;;37.92;22.33;;;4.10;86.60;;;;;;5050011;28;20095;-66
2021/12/06 04:48:05;;;;;;;40.58;24.45;;;4.00;86.60;;;;;;5049049;28;20047;-66
2021/12/06 04:50:33;;;;;;;35.58;20.83;;;4.00;86.70;;;;;;5049337;28;20131;-66
2021/12/06 04:53:06;;;;;;;40.53;24.50;;;4.00;86.80;;;;;;5049572;28;20039;-66
2021/12/06 04:55:49;;;;;;;40.55;22.80;;;4.00;86.90;;;;;;5038548;28;20123;-66
2021/12/06 04:58:22;;;;;;;39.55;22.90;;;4.00;86.90;;;;;;5049305;28;20406;-66
2021/12/06 05:01:02;;;;;;;43.60;23.13;;;4.00;87.00;;;;;;5048800;28;20148;-66
2021/12/06 05:03:29;;;;;;;38.78;21.63;;;4.00;87.00;;;;;;5031681;28;20048;-66
2021/12/06 05:06:00;;;;;;;40.15;23.98;;;4.00;87.00;;;;;;5049331;28;20175;-66
2021/12/06 05:08:30;;;;;;;42.05;23.70;;;4.10;87.10;;;;;;5048826;28;20408;-66
2021/12/06 05:10:59;;;;;;;40.70;22.73;;;4.10;87.00;;;;;;5049048;28;20044;-66
2021/12/06 05:13:27;;;;;;;45.35;25.60;;;4.10;87.10;;;;;;5029808;28;20037;-66
2021/12/06 05:15:53;;;;;;;42.08;23.65;;;4.10;87.10;;;;;;5047644;28;20136;-66
2021/12/06 05:18:19;;;;;;;45.13;24.83;;;4.10;87.10;;;;;;5049335;28;20156;-66
2021/12/06 05:20:45;;;;;;;43.17;25.70;;;4.10;87.10;;;;;;5048907;28;20797;-66
2021/12/06 05:23:11;;;;;;;37.58;23.33;;;4.10;87.10;;;;;;5048674;28;20037;-66
2021/12/06 05:25:37;;;;;;;44.67;25.25;;;4.10;87.10;;;;;;5048985;28;20431;-66
2021/12/06 05:28:05;;;;;;;41.08;24.17;;;4.10;87.10;;;;;;5047985;28;20053;-66
2021/12/06 05:30:31;;;;;;;38.47;22.52;;;4.10;87.20;;;;;;5048312;28;20144;-66
2021/12/06 05:33:00;;;;;;;36.05;21.63;;;4.10;87.10;;;;;;5049099;28;20049;-66
2021/12/06 05:35:27;;;;;;;41.97;24.50;;;4.10;87.10;;;;;;5048285;28;20052;-66
2021/12/06 05:37:56;;;;;;;44.47;24.05;;;4.10;87.10;;;;;;5047056;28;20052;-66
2021/12/06 05:40:25;;;;;;;37.58;22.02;;;4.10;87.00;;;;;;5047678;28;20397;-66
2021/12/06 05:42:53;;;;;;;38.63;22.45;;;4.10;87.10;;;;;;5048849;28;20041;-66
2021/12/06 05:45:21;;;;;;;35.50;22.35;;;4.00;87.20;;;;;;5048671;28;20075;-66
2021/12/06 05:47:47;;;;;;;35.20;22.77;;;4.00;87.20;;;;;;5047404;28;20051;-66
2021/12/06 05:50:14;;;;;;;35.22;22.38;;;4.00;87.20;;;;;;5047662;28;20159;-66
2021/12/06 05:52:40;;;;;;;32.50;20.05;;;4.00;87.30;;;;;;5048122;28;20413;-66
2021/12/06 05:55:09;;;;;;;37.78;21.50;;;3.90;87.30;;;;;;5048511;28;20045;-66
2021/12/06 05:57:35;;;;;;;36.97;22.50;;;4.00;87.40;;;;;;5048816;28;20037;-66
2021/12/06 06:00:02;;;;;;;37.78;21.50;;;4.00;87.40;;;;;;5047332;28;20037;-66
2021/12/06 06:02:29;;;;;;;33.45;21.00;;;4.00;87.40;;;;;;5049024;28;20082;-66
2021/12/06 06:04:54;;;;;;;33.28;20.88;;;4.00;87.40;;;;;;5046637;28;20049;-66
2021/12/06 06:07:20;;;;;;;34.08;21.20;;;3.90;87.50;;;;;;5047271;28;20040;-65
2021/12/06 06:09:45;;;;;;;37.15;20.88;;;3.90;87.40;;;;;;5048102;28;20506;-66
2021/12/06 06:12:11;;;;;;;35.33;21.30;;;3.80;87.60;;;;;;5048400;28;20041;-65
2021/12/06 06:14:37;;;;;;;33.83;21.13;;;3.80;87.70;;;;;;5051586;28;20816;-66
2021/12/06 06:17:09;;;;;;;35.95;21.13;;;3.80;87.80;;;;;;5051166;28;20045;-66
2021/12/06 06:19:37;;;;;;;39.33;21.95;;;3.80;87.80;;;;;;5052782;28;20056;-66
2021/12/06 06:22:03;;;;;;;34.22;20.38;;;3.80;87.80;;;;;;5050551;28;20572;-67
2021/12/06 06:24:29;;;;;;;37.75;23.50;;;3.80;88.00;;;;;;5052458;28;20545;-67
2021/12/06 06:26:54;;;;;;;40.92;22.92;;;3.70;87.90;;;;;;5050229;28;20041;-67
2021/12/06 06:29:20;;;;;;;34.38;20.58;;;3.80;88.00;;;;;;5051910;28;20041;-68
2021/12/06 06:31:46;;;;;;;33.78;21.23;;;3.70;87.90;;;;;;5052054;28;20050;-67
2021/12/06 06:34:11;;;;;;;34.42;20.50;;;3.70;88.10;;;;;;5051790;28;20036;-68
2021/12/06 06:36:37;;;;;;;33.60;19.50;;;3.80;88.30;;;;;;5051142;28;20083;-65
2021/12/06 06:39:07;;;;;;;38.50;22.20;;;3.70;88.20;;;;;;5051632;28;20036;-64
2021/12/06 06:41:35;;;;;;;28.33;17.85;;;3.80;88.20;;;;;;5051959;28;20123;-68
2021/12/06 06:44:01;;;;;;;30.50;19.45;;;3.80;88.20;;;;;;5051839;28;20172;-67
2021/12/06 06:46:27;;;;;;;34.88;20.23;;;4.20;91.30;;;;;;5050859;28;20068;-68
2021/12/06 06:48:54;;;;;;;35.30;21.30;;;4.60;90.90;;;;;;5050272;28;20080;-68
2021/12/06 06:51:20;;;;;;;36.17;21.52;;;4.90;90.40;;;;;;5051819;28;20057;-68
2021/12/06 06:53:46;;;;;;;33.88;20.10;;;5.10;89.30;;;;;;5051726;28;20404;-65
2021/12/06 06:56:11;;;;;;;33.63;20.13;;;5.20;88.40;;;;;;5049066;28;20041;-64
2021/12/06 06:58:37;;;;;;;36.80;21.00;;;5.10;87.10;;;;;;5041383;28;20049;-65
2021/12/06 07:01:03;;;;;;;33.65;20.90;;;5.00;86.70;;;;;;5049486;28;20037;-65
2021/12/06 07:03:31;;;;;;;33.88;20.13;;;4.90;86.50;;;;;;5034044;28;20548;-65
2021/12/06 07:05:58;;;;;;;30.10;19.75;;;4.90;86.40;;;;;;5045757;28;20048;-65
2021/12/06 07:08:24;;;;;;;28.02;18.17;;;4.70;86.30;;;;;;5048580;28;20064;-65
2021/12/06 07:10:51;;;;;;;25.35;18.20;;;4.60;86.40;;;;;;5049803;28;20033;-66
2021/12/06 07:13:17;;;;;;;29.42;18.10;;;4.60;86.60;;;;;;5049865;28;20120;-65
2021/12/06 07:15:42;;;;;;;30.65;20.02;;;4.40;86.70;;;;;;5034004;28;20171;-65
2021/12/06 07:18:08;;;;;;;28.30;18.88;;;4.40;86.80;;;;;;5034381;28;20042;-65
2021/12/06 07:20:34;;;;;;;30.75;18.40;;;4.30;86.90;;;;;;5046984;28;20462;-67
2021/12/06 07:23:01;;;;;;;33.78;20.38;;;4.60;88.10;;;;;;5049304;28;20787;-66
2021/12/06 07:25:27;;;;;;;29.60;18.60;;;4.70;87.40;;;;;;5048671;28;20090;-67
2021/12/06 07:27:53;;;;;;;29.75;18.45;;;4.70;86.90;;;;;;5050527;28;20056;-67
2021/12/06 07:30:20;;;;;;;29.42;18.48;;;4.60;86.80;;;;;;5049695;28;20040;-67
2021/12/06 07:32:46;;;;;;;32.65;19.30;;;4.60;86.70;;;;;;5050655;28;20102;-67
2021/12/06 07:35:13;;;;;;;31.27;17.77;;;4.60;86.80;;;;;;5050948;28;20124;-66
2021/12/06 07:37:39;;;;;;;31.77;19.05;;;4.60;87.90;;;;;;5046787;28;20049;-68
2021/12/06 07:40:08;;;;;;;29.42;18.33;;;4.60;87.40;;;;;;5047117;28;20430;-68
2021/12/06 07:42:33;;;;;;;38.40;20.67;;;4.60;87.10;;;;;;5048211;28;20086;-68
2021/12/06 07:44:59;;;;;;;35.42;21.02;;;4.60;87.00;;;;;;5049723;28;20041;-68
2021/12/06 07:47:25;;;;;;;36.53;19.92;;;4.60;87.00;;;;;;5034202;28;20170;-68
2021/12/06 07:49:51;;;;;;;36.90;20.02;;;4.60;87.00;;;;;;5048600;28;20041;-68
2021/12/06 07:52:17;;;;;;;40.13;21.00;;;4.40;87.00;;;;;;5050241;28;20053;-68
2021/12/06 07:54:43;;;;;;;36.58;20.88;;;4.30;87.00;;;;;;5049856;28;20501;-68
2021/12/06 07:57:09;;;;;;;46.28;23.27;;;4.30;87.40;;;;;;5048530;28;20040;-68
2021/12/06 07:59:36;;;;;;;43.83;22.77;;;4.20;87.60;;;;;;5049929;28;20044;-68
2021/12/06 08:02:09;;;;;;;45.47;22.40;;;4.20;87.70;;;;;;5048360;28;20513;-68
2021/12/06 08:04:35;;;;;;;45.17;22.90;;;4.10;88.10;;;;;;5038952;28;20048;-68
2021/12/06 08:07:01;;;;;;;47.60;23.30;;;4.10;88.10;;;;;;5048599;28;20490;-68
2021/12/06 08:09:26;;;;;;;45.63;23.73;;;4.10;88.20;;;;;;5029696;28;20110;-68
2021/12/06 08:11:52;;;;;;;42.38;22.27;;;4.00;88.30;;;;;;5033764;28;20187;-68
2021/12/06 08:14:19;;;;;;;38.42;21.45;;;4.00;88.60;;;;;;5047567;28;20451;-68
2021/12/06 08:16:47;;;;;;;44.80;23.75;;;3.90;89.00;;;;;;5043002;28;20044;-68
2021/12/06 08:19:13;;;;;;;43.53;22.88;;;3.90;88.90;;;;;;5049195;28;20119;-69
2021/12/06 08:21:40;;;;;;;42.35;20.90;;;3.90;89.10;;;;;;5031011;28;20056;-68
2021/12/06 08:24:06;;;;;;;46.60;24.23;;;3.80;89.30;;;;;;5049426;28;20045;-68
2021/12/06 08:26:35;;;;;;;44.20;22.55;;;3.90;89.50;;;;;;5045960;28;20045;-69
2021/12/06 08:29:06;;;;;;;50.75;24.52;;;3.80;89.60;;;;;;5027264;28;20120;-68
2021/12/06 08:31:33;;;;;;;45.03;21.40;;;3.90;89.60;;;;;;5027476;28;20048;-69
2021/12/06 08:33:59;;;;;;;52.15;23.00;;;3.90;89.60;;;;;;5040152;28;20044;-69
2021/12/06 08:36:25;;;;;;;47.00;22.63;;;3.90;89.60;;;;;;5030101;28;20110;-69
2021/12/06 08:38:52;;;;;;;47.85;23.02;;;3.90;89.60;;;;;;5047977;28;20080;-68
2021/12/06 08:41:22;;;;;;;47.22;22.70;;;3.90;89.70;;;;;;5030912;28;20551;-68
2021/12/06 08:43:49;;;;;;;51.40;22.40;;;4.00;89.70;;;;;;5048615;28;20044;-67
2021/12/06 08:46:22;;;;;;;48.45;23.17;;;3.90;89.70;;;;;;5030549;28;20056;-67
2021/12/06 08:48:50;;;;;;;47.78;23.77;;;4.00;89.70;;;;;;5047568;28;20045;-68
2021/12/06 08:51:22;;;;;;;41.33;22.65;;;3.90;89.90;;;;;;5046963;28;20040;-68
2021/12/06 08:53:49;;;;;;;40.40;21.40;;;6.00;96.10;;;;;;5042263;28;20049;-68
2021/12/06 08:56:15;;;;;;;53.25;24.65;;;5.70;92.30;;;;;;5043625;28;20052;-69
2021/12/06 08:58:45;;;;;;;52.42;24.30;;;5.40;90.50;;;;;;5047596;28;20531;-69
2021/12/06 09:01:13;;;;;;;47.97;24.25;;;5.20;90.20;;;;;;5046811;28;20575;-68
2021/12/06 09:03:42;;;;;;;49.35;24.45;;;5.00;89.20;;;;;;5020411;28;20375;-68
2021/12/06 09:06:10;;;;;;;52.25;24.85;;;4.90;89.00;;;;;;5047232;28;20041;-69
2021/12/06 09:08:36;;;;;;;51.20;24.23;;;4.80;88.70;;;;;;5035022;28;20124;-69
2021/12/06 09:11:04;;;;;;;59.08;25.45;;;4.60;88.70;;;;;;5048226;28;20057;-67
2021/12/06 09:13:31;;;;;;;55.50;27.52;;;4.50;88.90;;;;;;5046911;28;20052;-68
2021/12/06 09:16:00;;;;;;;58.33;26.70;;;4.40;89.00;;;;;;5047068;28;20037;-68
2021/12/06 09:18:29;;;;;;;58.45;27.08;;;4.40;89.10;;;;;;5041948;28;20045;-68
2021/12/06 09:20:56;;;;;;;61.50;25.63;;;4.40;89.30;;;;;;5049316;28;20072;-70
2021/12/06 09:23:22;;;;;;;53.92;26.23;;;4.40;89.30;;;;;;5030176;28;20051;-68
2021/12/06 09:25:49;;;;;;;63.03;27.48;;;4.40;89.40;;;;;;5048467;28;20509;-68
2021/12/06 09:28:17;;;;;;;60.50;26.58;;;4.50;89.30;;;;;;5046028;28;20518;-68
2021/12/06 09:30:44;;;;;;;59.80;27.17;;;4.50;89.40;;;;;;5030716;28;20425;-69
2021/12/06 09:33:12;;;;;;;54.65;24.92;;;4.50;89.30;;;;;;5046463;28;20460;-69
2021/12/06 09:35:44;;;;;;;55.75;27.48;;;4.60;89.20;;;;;;5045896;28;20051;-68
2021/12/06 09:38:11;;;;;;;58.78;26.48;;;4.60;89.10;;;;;;5027816;28;20060;-68
2021/12/06 09:40:40;;;;;;;56.63;25.92;;;4.60;89.10;;;;;;5046647;28;20056;-67
2021/12/06 09:43:09;;;;;;;53.63;25.73;;;4.60;89.00;;;;;;5047310;28;20047;-68
2021/12/06 09:45:35;;;;;;;58.42;27.55;;;4.60;88.90;;;;;;5030303;28;20440;-68
2021/12/06 09:48:03;;;;;;;59.80;28.08;;;4.50;88.90;;;;;;5046342;28;20047;-68
2021/12/06 09:50:34;;;;;;;50.97;25.63;;;4.50;89.00;;;;;;5052795;28;20044;-67
2021/12/06 09:53:02;;;;;;;55.72;28.05;;;4.50;88.90;;;;;;5051954;28;20048;-68
2021/12/06 09:55:29;;;;;;;54.92;27.48;;;4.40;89.00;;;;;;5050641;28;20080;-68
2021/12/06 09:57:56;;;;;;;49.25;26.05;;;4.40;88.80;;;;;;5034731;28;20446;-68
2021/12/06 10:00:25;;;;;;;52.35;27.20;;;4.60;88.70;;;;;;5052540;28;20825;-68
2021/12/06 10:02:54;;;;;;;54.88;28.17;;;4.40;88.20;;;;;;5049520;28;20127;-68
2021/12/06 10:05:25;;;;;;;53.08;28.20;;;4.40;88.20;;;;;;5050744;28;20132;-69
2021/12/06 10:07:52;;;;;;;57.53;27.30;;;4.40;88.30;;;;;;5052438;28;20051;-68
2021/12/06 10:10:19;;;;;;;59.00;29.35;;;4.40;88.30;;;;;;5050832;28;20509;-68
2021/12/06 10:12:48;;;;;;;55.28;29.05;;;4.50;88.20;;;;;;5034350;28;20080;-69
2021/12/06 10:15:14;;;;;;;57.83;30.10;;;4.40;88.00;;;;;;5050721;28;20063;-67
2021/12/06 10:17:43;;;;;;;57.75;29.85;;;4.40;87.90;;;;;;5050760;28;20521;-67
2021/12/06 10:20:09;;;;;;;51.08;27.05;;;4.40;88.10;;;;;;5052413;28;20084;-67
2021/12/06 10:22:36;;;;;;;63.15;31.88;;;4.50;88.00;;;;;;5052381;28;20047;-68
2021/12/06 10:25:04;;;;;;;53.22;29.27;;;4.50;87.90;;;;;;5051703;28;20072;-69
2021/12/06 10:27:30;;;;;;;57.38;26.30;;;4.40;87.60;;;;;;5049710;28;20077;-68
2021/12/06 10:30:01;;;;;;;47.17;25.55;;;4.40;87.80;;;;;;5051099;28;20059;-68
2021/12/06 10:32:33;;;;;;;45.70;24.40;;;4.50;87.80;;;;;;5050589;28;20395;-69
2021/12/06 10:35:07;;;;;;;40.45;23.92;;;4.50;87.70;;;;;;5052127;28;20081;-68
2021/12/06 10:37:45;;;;;;;52.33;26.80;;;4.40;87.70;;;;;;5048744;28;20056;-68
2021/12/06 10:40:16;;;;;;;48.53;26.02;;;4.40;87.50;;;;;;5050021;28;20756;-69
2021/12/06 10:42:44;;;;;;;38.53;22.02;;;4.30;87.60;;;;;;5051102;28;20041;-68
2021/12/06 10:45:13;;;;;;;45.70;22.83;;;4.30;87.60;;;;;;5029766;28;20044;-68
2021/12/06 10:47:39;;;;;;;45.88;24.13;;;4.20;87.60;;;;;;5050309;28;20059;-68
2021/12/06 10:50:11;;;;;;;49.13;24.92;;;4.20;87.60;;;;;;5050825;28;20039;-68
2021/12/06 10:52:50;;;;;;;41.13;24.65;;;4.20;87.80;;;;;;5050329;28;20088;-68
2021/12/06 10:55:16;;;;;;;49.10;26.20;;;4.10;87.90;;;;;;5049352;28;20053;-68
2021/12/06 10:57:46;;;;;;;39.17;22.52;;;4.10;88.10;;;;;;5048006;28;20049;-69
2021/12/06 11:00:32;;;;;;;58.92;25.48;;;4.10;88.20;;;;;;5039480;28;20403;-68
2021/12/06 11:02:58;;;;;;;44.90;23.00;;;4.00;88.00;;;;;;5046656;28;20044;-68
2021/12/06 11:05:28;;;;;;;47.63;23.73;;;3.80;88.30;;;;;;5049941;28;20410;-67
2021/12/06 11:08:15;;;;;;;49.55;25.95;;;3.70;88.90;;;;;;5050636;28;20041;-68
2021/12/06 11:10:51;;;;;;;46.15;24.73;;;3.70;89.20;;;;;;5050567;28;20044;-68
2021/12/06 11:13:38;;;;;;;45.58;24.02;;;3.70;89.40;;;;;;5048193;28;20410;-68
2021/12/06 11:16:09;;;;;;;44.33;23.67;;;3.60;89.60;;;;;;5046906;28;20060;-68
2021/12/06 11:18:48;;;;;;;50.58;25.17;;;3.60;89.90;;;;;;5050091;28;20037;-68
2021/12/06 11:21:22;;;;;;;51.03;24.60;;;3.60;89.90;;;;;;5027383;28;20048;-69
2021/12/06 11:24:05;;;;;;;51.83;25.92;;;3.60;90.10;;;;;;5049090;28;20049;-69
2021/12/06 11:26:33;;;;;;;54.35;25.25;;;3.60;90.40;;;;;;5042328;28;20159;-69
2021/12/06 11:29:11;;;;;;;51.08;24.88;;;3.60;90.60;;;;;;5046506;28;20063;-68
2021/12/06 11:31:42;;;;;;;55.67;25.65;;;3.70;90.40;;;;;;5030718;28;20076;-68
2021/12/06 11:34:09;;;;;;;47.55;23.05;;;3.70;90.40;;;;;;5038780;28;20498;-68
2021/12/06 11:36:39;;;;;;;47.90;24.13;;;3.70;90.30;;;;;;5049208;28;20128;-68
2021/12/06 11:39:16;;;;;;;52.60;23.88;;;3.70;90.40;;;;;;5048782;28;20056;-68
2021/12/06 11:41:48;;;;;;;51.13;22.63;;;3.70;90.50;;;;;;5049145;28;20084;-68
2021/12/06 11:44:25;;;;;;;49.22;25.08;;;3.70;90.60;;;;;;5047345;28;20055;-68
2021/12/06 11:47:02;;;;;;;48.97;25.98;;;3.80;90.50;;;;;;5049428;28;20048;-68
2021/12/06 11:49:51;;;;;;;48.20;25.25;;;3.80;90.70;;;;;;5032530;28;20036;-69
2021/12/06 11:52:23;;;;;;;45.83;22.98;;;3.80;90.70;;;;;;5048395;28;20061;-68
2021/12/06 11:55:00;;;;;;;52.05;24.50;;;3.80;90.50;;;;;;5043497;28;20048;-69
2021/12/06 11:57:42;;;;;;;52.45;24.92;;;3.80;90.70;;;;;;5047499;28;20138;-67
2021/12/06 12:00:16;;;;;;;56.95;27.40;;;3.80;90.70;;;;;;5049810;28;20052;-67
2021/12/06 12:02:56;;;;;;;52.03;24.90;;;3.80;90.80;;;;;;5044343;28;20040;-68
2021/12/06 12:05:25;;;;;;;51.75;25.63;;;3.90;90.90;;;;;;5031614;28;20128;-69
2021/12/06 12:08:11;;;;;;;55.42;25.42;;;3.80;90.90;;;;;;5047387;28;20319;-68
2021/12/06 12:10:53;;;;;;;54.63;26.13;;;3.90;90.80;;;;;;5047102;28;20444;-68
2021/12/06 12:13:35;;;;;;;49.60;24.27;;;3.90;90.70;;;;;;5041645;28;20047;-67
2021/12/06 12:16:03;;;;;;;;;;;3.90;90.80;;;;;;5048852;28;20140;-67
2021/12/06 12:18:30;;;;;;;52.28;24.55;;;3.80;90.70;;;;;;5048936;28;21279;-67
2021/12/06 12:20:56;;;;;;;58.70;28.20;;;3.80;90.80;;;;;;5049250;28;20486;-67
2021/12/06 12:23:24;;;;;;;60.35;27.48;;;3.80;90.90;;;;;;5049596;28;20132;-66
2021/12/06 12:28:21;;;;;;;54.10;26.98;;;3.90;90.80;;;;;;5042596;28;20126;-67
2021/12/06 12:30:48;;;;;;;59.33;28.02;;;3.90;90.70;;;;;;5044436;28;20048;-67
2021/12/06 12:33:19;;;;;;;57.80;28.88;;;3.90;90.80;;;;;;5047730;28;20110;-66
2021/12/06 12:35:51;;;;;;;62.10;28.50;;;4.00;90.70;;;;;;5047266;28;20415;-67
2021/12/06 12:38:23;;;;;;;64.57;29.60;;;4.00;90.70;;;;;;5049537;28;20053;-66
2021/12/06 12:40:58;;;;;;;66.43;31.15;;;4.00;90.50;;;;;;5030966;28;20052;-67
2021/12/06 12:43:37;;;;;;;61.53;29.45;;;4.00;90.80;;;;;;5044682;28;20045;-67
2021/12/06 12:46:16;;;;;;;62.50;29.67;;;4.10;90.80;;;;;;5027778;28;20049;-67
2021/12/06 12:48:50;;;;;;;63.55;29.70;;;4.10;90.70;;;;;;5044001;28;20091;-68
2021/12/06 12:51:20;;;;;;;65.75;30.52;;;4.90;93.50;;;;;;5047951;28;20048;-67
2021/12/06 12:54:12;;;;;;;61.35;30.38;;;4.80;90.30;;;;;;5049324;28;20040;-66
2021/12/06 12:56:54;;;;;;;59.20;29.00;;;4.80;90.00;;;;;;5049410;28;20044;-67
2021/12/06 12:59:19;;;;;;;;;;;4.70;89.30;;;;;;5048431;28;20709;-66
2021/12/06 13:02:20;;;;;;;60.38;28.65;;;4.60;89.00;;;;;;5040095;28;19979;-67